Latest Weather Observations for Horsley Park

IDN60801

Issued at 11:03 pm EDT Saturday 28 March 2015 (issued every 30 minutes, with the page automatically refreshed every 10 minutes)

About weather observations | Map of weather stations | Latest weather observations for NSW | Other Formats
Station Details ID: 067119 Name: HORSLEY PARK EQUESTRIAN CENTRE AWS Lat: -33.85 Lon: 150.86 Height: 100.0 m
Data from the previous 72 hours. | See also: Recent months at Horsley Park
Date/Time
EDT
Temp
°C
App
Temp
°C
Dew
Point
Rel
Hum
%
Delta-T
°C
Wind Press
QNH
hPa
Press
MSL
hPa
Rain
since 9 am
mm
Dir
 
Spd
km/h
Gust
km/h
Spd
kts
Gust
kts
28/11:00pm 14.4 14.7 11.0 80 1.8 CALM 0 0 0 0 - - -
28/10:30pm 15.4 14.7 11.4 77 2.2 SSW 6 6 3 3 - - -
28/10:00pm 15.8 15.9 11.4 75 2.4 SSW 2 4 1 2 - - -
28/09:30pm 15.7 15.4 11.3 75 2.4 S 4 4 2 2 - - -
28/09:00pm 16.1 15.5 10.4 69 3.0 SSE 4 6 2 3 - - 0.0
28/08:30pm 17.4 16.6 11.0 66 3.5 SSE 6 7 3 4 - - -
28/08:00pm 17.8 16.5 11.1 65 3.6 SE 9 17 5 9 - - -
28/07:30pm 18.0 15.8 10.9 63 3.8 SE 13 17 7 9 - - -
28/07:00pm 18.6 15.5 10.4 59 4.4 SE 17 24 9 13 - - -
28/06:30pm 19.3 17.0 10.3 56 4.9 SE 13 26 7 14 - - -
28/05:30pm 21.0 18.3 10.2 50 5.9 ESE 15 22 8 12 - - -
28/05:00pm 21.8 18.8 10.6 49 6.2 ESE 17 26 9 14 - - -
28/04:30pm 22.2 19.7 9.7 45 6.8 ESE 13 20 7 11 - - -
28/04:00pm 22.9 19.7 10.0 44 7.1 E 17 26 9 14 - - -
28/03:30pm 23.4 21.9 9.0 40 7.8 SSE 7 15 4 8 - - -
28/03:00pm 23.8 22.1 5.7 31 9.2 N 4 11 2 6 - - -
28/02:30pm 23.4 21.2 5.3 31 9.1 WSW 6 9 3 5 - - -
28/02:00pm 22.0 19.5 4.6 32 8.6 N 7 13 4 7 - - -
28/01:30pm 23.2 21.2 6.9 35 8.5 N 7 15 4 8 - - -
28/01:00pm 22.3 19.6 5.7 34 8.4 ENE 9 17 5 9 - - -
28/12:30pm 22.1 20.0 5.9 35 8.2 E 6 13 3 7 - - -
28/12:00pm 21.5 19.3 5.4 35 8.0 ESE 6 11 3 6 - - 0.0
28/11:30am 20.9 18.6 5.7 37 7.6 S 7 15 4 8 - - 0.0
28/11:00am 20.1 17.9 6.1 40 7.0 SW 7 15 4 8 - - 0.0
28/10:30am 19.4 17.4 7.2 45 6.2 WSW 7 15 4 8 - - 0.0
28/10:00am 18.1 15.6 6.6 47 5.7 WSW 9 15 5 8 - - 0.0
28/09:30am 17.5 14.7 7.0 50 5.3 SW 11 17 6 9 - - 0.0
28/09:00am 15.9 13.4 6.6 54 4.6 WSW 9 13 5 7 - - 0.0
28/08:30am 15.0 13.5 6.6 57 4.1 WSW 4 6 2 3 - - 0.0
28/08:00am 14.4 12.4 6.3 58 3.9 SW 6 9 3 5 - - 0.0
28/07:30am 11.8 9.7 5.7 66 2.9 SW 6 7 3 4 - - 0.0
28/07:00am 11.2 8.9 5.9 70 2.5 SW 7 7 4 4 - - 0.0
28/06:30am 9.8 8.9 6.0 77 1.8 CALM 0 2 0 1 - - 0.0
28/06:00am 10.2 9.3 6.1 76 1.9 CALM 0 0 0 0 - - 0.0
28/05:30am 10.7 9.7 5.7 71 2.3 CALM 0 0 0 0 - - 0.0
28/05:00am 11.3 9.9 5.4 67 2.7 WSW 2 4 1 2 - - 0.0
28/04:30am 14.1 12.2 4.7 53 4.4 WSW 4 6 2 3 - - 0.0
28/04:00am 15.2 12.7 4.6 49 5.0 WSW 7 11 4 6 - - 0.0
28/03:30am 15.9 12.6 4.6 47 5.3 SW 11 19 6 10 - - 0.0
28/03:00am 16.1 12.8 4.5 46 5.5 SW 11 19 6 10 - - 0.0
28/02:30am 16.4 12.7 4.4 45 5.7 SW 13 19 7 10 - - 0.0
28/02:00am 16.4 13.5 4.8 46 5.5 SW 9 19 5 10 - - 0.0
28/01:30am 16.4 13.5 4.8 46 5.5 SW 9 17 5 9 - - 0.0
28/01:00am 16.1 13.2 4.5 46 5.5 SW 9 13 5 7 - - 0.0
28/12:30am 16.8 13.2 4.8 45 5.7 SW 13 19 7 10 - - 0.0
28/12:00am 17.3 14.0 4.3 42 6.2 WSW 11 17 6 9 - - 0.0
 
Date/Time
EDT
Temp
°C
App
Temp
°C
Dew
Point
Rel
Hum
%
Delta-T
°C
Wind Press
QNH
hPa
Press
MSL
hPa
Rain
since 9 am
mm
Dir
 
Spd
km/h
Gust
km/h
Spd
kts
Gust
kts
27/11:30pm 17.5 14.2 4.5 42 6.2 WSW 11 17 6 9 - - 0.0
27/11:00pm 17.2 14.7 4.5 43 6.0 SW 7 13 4 7 - - 0.0
27/10:30pm 17.3 14.4 4.6 43 6.1 SW 9 13 5 7 - - 0.0
27/10:00pm 17.4 14.9 4.7 43 6.1 SW 7 13 4 7 - - 0.0
27/09:30pm 18.1 15.1 4.3 40 6.6 WSW 9 13 5 7 - - 0.0
27/09:00pm 18.6 14.9 4.4 39 6.8 SW 13 20 7 11 - - 0.0
27/08:30pm 19.2 16.5 3.8 36 7.3 WSW 7 13 4 7 - - 0.0
27/08:00pm 19.9 15.7 4.0 35 7.6 SW 15 20 8 11 - - 0.0
27/07:30pm 20.1 17.3 3.3 33 8.0 SW 7 11 4 6 - - 0.0
27/07:00pm 21.7 18.2 3.4 30 8.8 WSW 11 17 6 9 - - 0.0
27/06:30pm 22.7 19.2 3.3 28 9.4 SW 11 19 6 10 - - 0.0
27/06:00pm 24.3 20.3 3.0 25 10.4 SW 13 20 7 11 - - 0.0
27/05:30pm 25.1 21.1 3.1 24 10.8 SW 13 20 7 11 - - 0.0
27/05:00pm 25.9 22.7 3.2 23 11.2 WSW 9 17 5 9 - - 0.0
27/04:30pm 26.1 22.6 3.4 23 11.3 WSW 11 15 6 8 - - 0.0
27/04:00pm 26.1 22.5 2.7 22 11.5 WSW 11 20 6 11 - - 0.0
27/03:30pm 25.5 21.5 2.9 23 11.1 SW 13 22 7 12 - - 0.0
27/03:00pm 25.7 21.4 3.0 23 11.1 WSW 15 28 8 15 - - 0.0
27/02:30pm 25.5 21.5 2.9 23 11.1 WSW 13 28 7 15 - - 0.0
27/02:00pm 25.0 21.5 3.6 25 10.6 WSW 11 19 6 10 - - 0.0
27/01:30pm 24.0 21.0 3.9 27 9.9 W 9 24 5 13 - - 0.0
27/01:00pm 23.0 19.1 1.4 24 10.1 WNW 11 20 6 11 - - 0.0
27/12:30pm 22.5 18.1 2.6 27 9.5 W 15 24 8 13 - - 0.0
27/12:00pm 22.1 18.2 3.3 29 9.0 WSW 13 24 7 13 - - 0.0
27/11:30am 21.3 17.0 3.0 30 8.7 W 15 28 8 15 - - 0.0
27/11:00am 19.8 16.8 3.9 35 7.6 NW 9 19 5 10 - - 0.0
27/10:30am 19.2 15.8 3.8 36 7.3 WNW 11 19 6 10 - - 0.0
27/10:00am 17.9 13.6 3.0 37 6.9 WNW 15 24 8 13 - - 0.0
27/09:30am 17.1 13.5 2.7 38 6.6 WNW 11 19 6 10 - - 0.0
27/09:00am 15.3 12.1 2.8 43 5.6 NW 9 13 5 7 - - 0.0
27/08:30am 13.9 11.7 3.1 48 4.9 NNW 4 7 2 4 - - 0.0
27/08:00am 11.2 10.0 4.4 63 3.1 CALM 0 0 0 0 - - 0.0
27/07:30am 9.2 6.9 3.0 65 2.7 NW 4 4 2 2 - - 0.0
27/07:00am 9.9 7.5 2.0 58 3.3 NW 4 6 2 3 - - 0.0
27/06:30am 11.8 9.2 1.2 48 4.5 W 4 6 2 3 - - 0.0
27/06:00am 12.1 9.5 0.8 46 4.7 W 4 6 2 3 - - 0.0
27/05:30am 12.5 9.5 0.6 44 5.0 WSW 6 9 3 5 - - 0.0
27/05:00am 12.2 9.2 0.9 46 4.8 WNW 6 7 3 4 - - 0.0
27/04:30am 12.7 9.5 0.8 44 5.0 WNW 7 11 4 6 - - 0.0
27/04:00am 10.8 8.3 1.6 53 3.9 W 4 7 2 4 - - 0.0
27/03:30am 12.3 10.0 0.4 44 5.0 WNW 2 4 1 2 - - 0.0
27/03:00am 14.2 11.0 -0.6 36 6.2 WSW 6 9 3 5 - - 0.0
27/02:30am 14.6 11.2 -0.7 35 6.4 W 7 13 4 7 - - 0.0
27/02:00am 14.2 11.1 0.1 38 6.0 WSW 6 9 3 5 - - 0.0
27/01:30am 14.1 11.1 1.1 41 5.6 W 6 9 3 5 - - 0.0
27/01:00am 14.9 11.8 0.0 36 6.3 WSW 6 9 3 5 - - 0.0
27/12:30am 15.4 12.2 0.8 37 6.3 WSW 7 15 4 8 - - 0.0
27/12:00am 15.6 12.6 1.7 39 6.2 SW 7 11 4 6 - - 0.0
 
Date/Time
EDT
Temp
°C
App
Temp
°C
Dew
Point
Rel
Hum
%
Delta-T
°C
Wind Press
QNH
hPa
Press
MSL
hPa
Rain
since 9 am
mm
Dir
 
Spd
km/h
Gust
km/h
Spd
kts
Gust
kts
26/11:30pm 16.6 13.7 1.5 36 6.7 WSW 6 7 3 4 - - 0.0
26/11:00pm 17.7 14.8 1.2 33 7.4 WSW 6 9 3 5 - - 0.0
26/10:30pm 18.4 14.5 3.5 37 7.0 WSW 13 20 7 11 - - 0.0
26/10:00pm 17.7 15.6 5.9 46 5.8 WNW 6 11 3 6 - - 0.0
26/09:30pm 18.5 16.8 5.7 43 6.3 WSW 4 7 2 4 - - 0.0
26/09:00pm 19.0 17.3 5.8 42 6.5 W 4 9 2 5 - - 0.0
26/08:30pm 19.4 17.4 6.2 42 6.6 W 6 13 3 7 - - 0.0
26/08:00pm 18.4 17.0 5.6 43 6.3 WSW 2 4 1 2 - - 0.0
26/07:30pm 20.4 19.2 4.4 35 7.8 CALM 0 2 0 1 - - 0.0
26/07:00pm 22.4 20.0 4.5 31 8.8 NW 6 11 3 6 - - 0.0
26/06:30pm 23.9 20.7 3.2 26 10.1 NW 9 15 5 8 - - 0.0
26/06:00pm 24.9 20.4 2.4 23 10.9 WNW 15 26 8 14 - - 0.0
26/05:30pm 25.1 22.7 5.3 28 10.1 SW 7 13 4 7 - - 0.0
26/05:00pm 25.8 22.7 3.7 24 11.0 NW 9 17 5 9 - - 0.0
26/04:30pm 26.5 22.8 4.3 24 11.2 NW 13 24 7 13 - - 0.0
26/04:00pm 26.7 22.9 5.6 26 10.9 NNW 15 26 8 14 - - 0.0
26/03:30pm 26.2 22.9 6.3 28 10.4 NNW 13 19 7 10 - - 0.0
26/03:00pm 26.4 23.3 5.4 26 10.8 NNW 11 22 6 12 - - 0.0
26/02:30pm 26.2 22.8 5.7 27 10.6 WNW 13 20 7 11 - - 0.0
26/02:00pm 25.9 23.5 7.0 30 10.0 WNW 9 24 5 13 - - 0.0
26/01:30pm 26.2 24.7 9.1 34 9.4 WNW 7 15 4 8 - - 0.0
26/01:00pm 24.8 22.0 8.7 36 8.7 NNW 13 20 7 11 - - 0.0
26/12:30pm 24.4 21.9 8.4 36 8.6 NW 11 22 6 12 - - 0.0
26/12:00pm 24.4 22.7 9.9 40 8.0 WSW 9 13 5 7 - - 0.0
26/11:30am 22.9 21.2 10.0 44 7.1 NW 9 13 5 7 - - 0.0
26/11:00am 22.4 21.4 10.2 46 6.7 WSW 6 11 3 6 - - 0.0
26/10:30am 21.3 19.5 10.8 51 5.8 W 11 17 6 9 - - 0.0
26/10:00am 20.3 19.7 12.3 60 4.5 WSW 7 15 4 8 - - 0.0
26/09:30am 19.4 19.2 13.1 67 3.6 W 6 11 3 6 - - 0.0
26/09:00am 18.3 17.8 13.8 75 2.6 SW 9 17 5 9 - - 0.0
26/08:30am 17.4 17.6 14.3 82 1.8 WSW 6 9 3 5 - - 0.0
26/08:00am 16.3 16.5 14.3 88 1.1 WSW 6 9 3 5 - - 0.0
26/07:30am 14.9 15.9 13.3 90 0.9 CALM 0 0 0 0 - - 0.0
26/07:00am 15.5 16.5 13.3 87 1.2 CALM 0 0 0 0 - - 0.0
26/06:30am 16.1 17.2 14.5 90 0.9 WNW 2 7 1 4 - - 0.0
26/06:00am 15.6 16.7 13.6 88 1.1 CALM 0 0 0 0 - - 0.0
26/05:30am 15.9 17.1 13.7 87 1.2 CALM 0 0 0 0 - - 0.0
26/05:00am 15.3 16.4 13.5 89 1.0 CALM 0 0 0 0 - - 0.0
26/04:30am 16.1 17.2 13.6 85 1.4 CALM 0 0 0 0 - - 0.0
26/04:00am 16.3 17.4 13.4 83 1.6 CALM 0 0 0 0 - - 0.0
26/03:30am 16.7 17.5 13.8 83 1.6 WSW 2 6 1 3 - - 0.0
26/03:00am 15.9 17.0 13.6 86 1.3 CALM 0 0 0 0 - - 0.0
26/02:30am 15.8 16.9 13.6 87 1.2 CALM 0 0 0 0 - - 0.0
26/02:00am 15.8 16.9 13.5 86 1.3 CALM 0 0 0 0 - - 0.0
26/01:30am 16.5 17.1 13.2 81 1.9 W 2 4 1 2 - - 0.0
26/01:00am 17.0 18.3 14.1 83 1.7 CALM 0 0 0 0 - - 0.0
26/12:30am 17.1 18.1 14.4 84 1.6 WNW 2 4 1 2 - - 0.0
26/12:00am 16.9 17.9 14.4 85 1.4 WNW 2 4 1 2 - - 0.0
 
Date/Time
EDT
Temp
°C
App
Temp
°C
Dew
Point
Rel
Hum
%
Delta-T
°C
Wind Press
QNH
hPa
Press
MSL
hPa
Rain
since 9 am
mm
Dir
 
Spd
km/h
Gust
km/h
Spd
kts
Gust
kts
25/11:30pm 16.3 17.6 14.1 87 1.3 CALM 0 0 0 0 - - 0.0

Other Formats:

Comma delimited format used in spreadsheet applications
http://www.bom.gov.au/fwo/IDN60801/IDN60801.94760.axf

JavaScript Object Notation format (JSON) in row-major order
http://www.bom.gov.au/fwo/IDN60801/IDN60801.94760.json